sensor_id;sensor_type;location;lat;lon;timestamp;P1;durP1;ratioP1;P2;durP2;ratioP2
73557;SDS011;61829;53.286;10.434;2022-08-19T15:02:21;30.10;;;17.85;;
73557;SDS011;61829;53.286;10.434;2022-08-19T15:07:14;24.55;;;17.35;;
73557;SDS011;61829;53.286;10.434;2022-08-19T15:09:39;22.65;;;16.23;;
73557;SDS011;61829;53.286;10.434;2022-08-19T15:12:07;20.52;;;16.38;;
73557;SDS011;61829;53.286;10.434;2022-08-19T15:14:35;22.98;;;16.15;;
73557;SDS011;61829;53.286;10.434;2022-08-19T15:17:04;22.98;;;15.68;;
73557;SDS011;61829;53.286;10.434;2022-08-19T15:19:31;23.65;;;17.17;;
73557;SDS011;61829;53.286;10.434;2022-08-19T15:21:58;22.27;;;16.25;;
73557;SDS011;61829;53.286;10.434;2022-08-19T15:26:52;17.48;;;14.25;;
73557;SDS011;61829;53.286;10.434;2022-08-19T15:29:21;17.83;;;13.35;;
73557;SDS011;61829;53.286;10.434;2022-08-19T15:31:50;17.92;;;12.57;;
73557;SDS011;61829;53.286;10.434;2022-08-19T15:34:21;19.45;;;14.63;;
73557;SDS011;61829;53.286;10.434;2022-08-19T15:36:48;18.00;;;13.48;;
73557;SDS011;61829;53.286;10.434;2022-08-19T15:39:14;18.23;;;13.75;;
73557;SDS011;61829;53.286;10.434;2022-08-19T15:41:40;18.02;;;12.82;;
73557;SDS011;61829;53.286;10.434;2022-08-19T15:44:10;18.27;;;13.05;;
73557;SDS011;61829;53.286;10.434;2022-08-19T15:46:39;16.42;;;13.25;;
73557;SDS011;61829;53.286;10.434;2022-08-19T15:49:06;17.48;;;13.43;;
73557;SDS011;61829;53.286;10.434;2022-08-19T15:51:34;19.95;;;13.25;;
73557;SDS011;61829;53.286;10.434;2022-08-19T15:54:02;18.02;;;14.55;;
73557;SDS011;61829;53.286;10.434;2022-08-19T15:56:30;19.23;;;14.57;;
73557;SDS011;61829;53.286;10.434;2022-08-19T15:59:14;17.17;;;14.02;;
73557;SDS011;61829;53.286;10.434;2022-08-19T16:01:59;19.90;;;14.40;;
73557;SDS011;61829;53.286;10.434;2022-08-19T16:04:44;20.98;;;15.65;;
73557;SDS011;61829;53.286;10.434;2022-08-19T16:07:29;18.92;;;15.45;;
73557;SDS011;61829;53.286;10.434;2022-08-19T16:09:56;21.15;;;14.77;;
73557;SDS011;61829;53.286;10.434;2022-08-19T16:12:23;19.98;;;15.77;;
73557;SDS011;61829;53.286;10.434;2022-08-19T16:14:55;18.95;;;15.25;;
73557;SDS011;61829;53.286;10.434;2022-08-19T16:17:22;17.98;;;14.15;;
73557;SDS011;61829;53.286;10.434;2022-08-19T16:19:49;18.42;;;14.30;;
73557;SDS011;61829;53.286;10.434;2022-08-19T16:22:16;17.30;;;13.85;;
73557;SDS011;61829;53.286;10.434;2022-08-19T16:24:43;14.88;;;12.85;;
73557;SDS011;61829;53.286;10.434;2022-08-19T16:27:09;16.40;;;13.27;;
73557;SDS011;61829;53.286;10.434;2022-08-19T16:29:36;14.32;;;11.80;;
73557;SDS011;61829;53.286;10.434;2022-08-19T16:32:03;14.20;;;12.02;;
73557;SDS011;61829;53.286;10.434;2022-08-19T16:34:31;15.23;;;11.10;;
73557;SDS011;61829;53.286;10.434;2022-08-19T16:36:58;14.43;;;11.23;;
73557;SDS011;61829;53.286;10.434;2022-08-19T16:39:24;14.18;;;10.93;;
73557;SDS011;61829;53.286;10.434;2022-08-19T16:41:51;14.45;;;10.77;;
73557;SDS011;61829;53.286;10.434;2022-08-19T16:44:18;13.70;;;10.52;;
73557;SDS011;61829;53.286;10.434;2022-08-19T16:46:45;15.07;;;10.63;;
73557;SDS011;61829;53.286;10.434;2022-08-19T16:49:12;12.20;;;9.50;;
73557;SDS011;61829;53.286;10.434;2022-08-19T16:51:40;15.23;;;10.25;;
73557;SDS011;61829;53.286;10.434;2022-08-19T16:54:09;13.07;;;9.98;;
73557;SDS011;61829;53.286;10.434;2022-08-19T16:56:36;12.32;;;9.57;;
73557;SDS011;61829;53.286;10.434;2022-08-19T16:59:03;12.48;;;9.45;;
73557;SDS011;61829;53.286;10.434;2022-08-19T17:01:31;12.85;;;9.05;;
73557;SDS011;61829;53.286;10.434;2022-08-19T17:03:58;12.23;;;9.30;;
73557;SDS011;61829;53.286;10.434;2022-08-19T17:06:26;12.93;;;9.05;;
73557;SDS011;61829;53.286;10.434;2022-08-19T17:08:57;10.95;;;9.10;;
73557;SDS011;61829;53.286;10.434;2022-08-19T17:11:27;11.48;;;8.73;;
73557;SDS011;61829;53.286;10.434;2022-08-19T17:13:56;12.27;;;8.60;;
73557;SDS011;61829;53.286;10.434;2022-08-19T17:16:24;11.13;;;8.65;;
73557;SDS011;61829;53.286;10.434;2022-08-19T17:18:55;15.20;;;9.10;;
73557;SDS011;61829;53.286;10.434;2022-08-19T17:21:25;12.43;;;9.75;;
73557;SDS011;61829;53.286;10.434;2022-08-19T17:23:54;13.02;;;9.00;;
73557;SDS011;61829;53.286;10.434;2022-08-19T17:26:24;11.77;;;9.25;;
73557;SDS011;61829;53.286;10.434;2022-08-19T17:28:52;12.07;;;9.10;;
73557;SDS011;61829;53.286;10.434;2022-08-19T17:31:20;10.32;;;8.55;;
73557;SDS011;61829;53.286;10.434;2022-08-19T17:33:49;11.43;;;9.50;;
73557;SDS011;61829;53.286;10.434;2022-08-19T17:36:17;11.80;;;8.88;;
73557;SDS011;61829;53.286;10.434;2022-08-19T17:38:44;11.77;;;8.98;;
73557;SDS011;61829;53.286;10.434;2022-08-19T17:41:11;12.63;;;9.48;;
73557;SDS011;61829;53.286;10.434;2022-08-19T17:46:04;11.32;;;9.05;;
73557;SDS011;61829;53.286;10.434;2022-08-19T17:48:31;10.73;;;9.10;;
73557;SDS011;61829;53.286;10.434;2022-08-19T17:53:47;12.70;;;8.93;;
73557;SDS011;61829;53.286;10.434;2022-08-19T17:56:18;10.18;;;8.80;;
73557;SDS011;61829;53.286;10.434;2022-08-19T17:58:46;11.05;;;8.32;;
73557;SDS011;61829;53.286;10.434;2022-08-19T18:01:14;10.10;;;7.95;;
73557;SDS011;61829;53.286;10.434;2022-08-19T18:03:41;13.77;;;9.52;;
73557;SDS011;61829;53.286;10.434;2022-08-19T18:06:08;11.15;;;8.70;;
73557;SDS011;61829;53.286;10.434;2022-08-19T18:08:35;10.25;;;8.20;;
73557;SDS011;61829;53.286;10.434;2022-08-19T18:11:06;11.15;;;8.57;;
73557;SDS011;61829;53.286;10.434;2022-08-19T18:13:34;11.10;;;9.45;;
73557;SDS011;61829;53.286;10.434;2022-08-19T18:16:01;12.63;;;10.02;;
73557;SDS011;61829;53.286;10.434;2022-08-19T18:18:29;12.27;;;8.85;;
73557;SDS011;61829;53.286;10.434;2022-08-19T18:20:55;12.80;;;9.18;;
73557;SDS011;61829;53.286;10.434;2022-08-19T18:23:22;12.27;;;9.18;;
73557;SDS011;61829;53.286;10.434;2022-08-19T18:25:49;11.40;;;9.68;;
73557;SDS011;61829;53.286;10.434;2022-08-19T18:28:15;13.70;;;10.27;;
73557;SDS011;61829;53.286;10.434;2022-08-19T18:30:41;13.52;;;9.90;;
73557;SDS011;61829;53.286;10.434;2022-08-19T18:33:08;12.63;;;9.98;;
73557;SDS011;61829;53.286;10.434;2022-08-19T18:35:39;11.57;;;9.15;;
73557;SDS011;61829;53.286;10.434;2022-08-19T18:38:11;13.50;;;9.73;;
73557;SDS011;61829;53.286;10.434;2022-08-19T18:44:06;11.95;;;9.82;;
73557;SDS011;61829;53.286;10.434;2022-08-19T18:46:50;12.88;;;9.85;;
73557;SDS011;61829;53.286;10.434;2022-08-19T18:52:01;10.98;;;8.70;;
73557;SDS011;61829;53.286;10.434;2022-08-19T18:54:28;14.68;;;9.90;;
73557;SDS011;61829;53.286;10.434;2022-08-19T18:56:55;12.38;;;10.02;;
73557;SDS011;61829;53.286;10.434;2022-08-19T18:59:22;12.98;;;9.48;;
73557;SDS011;61829;53.286;10.434;2022-08-19T19:01:49;10.82;;;9.57;;
73557;SDS011;61829;53.286;10.434;2022-08-19T19:04:18;12.43;;;9.98;;
73557;SDS011;61829;53.286;10.434;2022-08-19T19:06:46;12.30;;;9.50;;
73557;SDS011;61829;53.286;10.434;2022-08-19T19:09:13;15.88;;;9.88;;
73557;SDS011;61829;53.286;10.434;2022-08-19T19:11:45;14.70;;;8.75;;
73557;SDS011;61829;53.286;10.434;2022-08-19T19:14:19;11.43;;;8.82;;
73557;SDS011;61829;53.286;10.434;2022-08-19T19:16:50;11.98;;;8.90;;
73557;SDS011;61829;53.286;10.434;2022-08-19T19:19:16;10.23;;;8.88;;
73557;SDS011;61829;53.286;10.434;2022-08-19T19:24:17;12.18;;;9.05;;
73557;SDS011;61829;53.286;10.434;2022-08-19T19:26:48;13.00;;;9.80;;
73557;SDS011;61829;53.286;10.434;2022-08-19T19:29:16;11.68;;;8.95;;
73557;SDS011;61829;53.286;10.434;2022-08-19T19:31:44;12.02;;;9.15;;
73557;SDS011;61829;53.286;10.434;2022-08-19T19:34:11;11.80;;;9.10;;
73557;SDS011;61829;53.286;10.434;2022-08-19T19:36:39;12.63;;;8.90;;
73557;SDS011;61829;53.286;10.434;2022-08-19T19:39:05;11.07;;;8.70;;
73557;SDS011;61829;53.286;10.434;2022-08-19T19:41:33;10.93;;;8.88;;
73557;SDS011;61829;53.286;10.434;2022-08-19T19:44:02;12.20;;;9.48;;
73557;SDS011;61829;53.286;10.434;2022-08-19T19:46:29;14.13;;;9.77;;
73557;SDS011;61829;53.286;10.434;2022-08-19T19:48:58;11.02;;;8.98;;
73557;SDS011;61829;53.286;10.434;2022-08-19T19:51:25;12.15;;;9.90;;
73557;SDS011;61829;53.286;10.434;2022-08-19T19:53:54;13.05;;;9.00;;
73557;SDS011;61829;53.286;10.434;2022-08-19T19:56:21;12.13;;;9.38;;
73557;SDS011;61829;53.286;10.434;2022-08-19T19:58:49;11.00;;;8.88;;
73557;SDS011;61829;53.286;10.434;2022-08-19T20:01:15;12.63;;;9.48;;
73557;SDS011;61829;53.286;10.434;2022-08-19T20:06:10;10.55;;;8.23;;
73557;SDS011;61829;53.286;10.434;2022-08-19T20:08:37;11.43;;;8.02;;
73557;SDS011;61829;53.286;10.434;2022-08-19T20:11:28;13.10;;;10.07;;
73557;SDS011;61829;53.286;10.434;2022-08-19T20:13:58;12.25;;;9.50;;
73557;SDS011;61829;53.286;10.434;2022-08-19T20:16:27;13.70;;;10.30;;
73557;SDS011;61829;53.286;10.434;2022-08-19T20:18:54;13.82;;;9.70;;
73557;SDS011;61829;53.286;10.434;2022-08-19T20:21:21;10.40;;;8.00;;
73557;SDS011;61829;53.286;10.434;2022-08-19T20:23:48;12.60;;;10.10;;
73557;SDS011;61829;53.286;10.434;2022-08-19T20:26:14;12.85;;;10.48;;
73557;SDS011;61829;53.286;10.434;2022-08-19T20:28:43;11.75;;;9.43;;
73557;SDS011;61829;53.286;10.434;2022-08-19T20:31:09;14.30;;;10.32;;
73557;SDS011;61829;53.286;10.434;2022-08-19T20:33:35;14.60;;;10.52;;
73557;SDS011;61829;53.286;10.434;2022-08-19T20:36:01;14.98;;;10.93;;
73557;SDS011;61829;53.286;10.434;2022-08-19T20:38:28;14.20;;;10.48;;
73557;SDS011;61829;53.286;10.434;2022-08-19T20:40:55;14.57;;;9.52;;
73557;SDS011;61829;53.286;10.434;2022-08-19T20:43:20;14.18;;;9.43;;
73557;SDS011;61829;53.286;10.434;2022-08-19T20:45:47;13.80;;;10.63;;
73557;SDS011;61829;53.286;10.434;2022-08-19T20:48:13;14.20;;;10.45;;
73557;SDS011;61829;53.286;10.434;2022-08-19T20:50:39;14.50;;;9.98;;
73557;SDS011;61829;53.286;10.434;2022-08-19T20:53:12;13.68;;;10.50;;
73557;SDS011;61829;53.286;10.434;2022-08-19T20:55:44;12.30;;;9.95;;
73557;SDS011;61829;53.286;10.434;2022-08-19T20:58:14;14.43;;;10.15;;
73557;SDS011;61829;53.286;10.434;2022-08-19T21:00:42;15.65;;;10.52;;
73557;SDS011;61829;53.286;10.434;2022-08-19T21:03:10;13.73;;;10.95;;
73557;SDS011;61829;53.286;10.434;2022-08-19T21:05:39;14.80;;;10.38;;
73557;SDS011;61829;53.286;10.434;2022-08-19T21:08:05;13.55;;;9.95;;
73557;SDS011;61829;53.286;10.434;2022-08-19T21:10:33;14.23;;;11.13;;
73557;SDS011;61829;53.286;10.434;2022-08-19T21:15:28;16.25;;;11.57;;
73557;SDS011;61829;53.286;10.434;2022-08-19T21:17:55;13.48;;;10.43;;
73557;SDS011;61829;53.286;10.434;2022-08-19T21:20:21;13.77;;;10.70;;
73557;SDS011;61829;53.286;10.434;2022-08-19T21:22:48;16.05;;;10.02;;
73557;SDS011;61829;53.286;10.434;2022-08-19T21:25:14;13.45;;;10.60;;
73557;SDS011;61829;53.286;10.434;2022-08-19T21:27:42;16.55;;;10.82;;
73557;SDS011;61829;53.286;10.434;2022-08-19T21:30:11;15.07;;;11.80;;
73557;SDS011;61829;53.286;10.434;2022-08-19T21:32:37;13.88;;;10.73;;
73557;SDS011;61829;53.286;10.434;2022-08-19T21:35:04;15.00;;;12.10;;
73557;SDS011;61829;53.286;10.434;2022-08-19T21:37:30;17.95;;;12.95;;
73557;SDS011;61829;53.286;10.434;2022-08-19T21:39:59;16.95;;;11.27;;
73557;SDS011;61829;53.286;10.434;2022-08-19T21:42:25;16.42;;;11.80;;
73557;SDS011;61829;53.286;10.434;2022-08-19T21:44:51;15.80;;;11.88;;
73557;SDS011;61829;53.286;10.434;2022-08-19T21:47:17;17.08;;;12.15;;
73557;SDS011;61829;53.286;10.434;2022-08-19T21:49:43;15.32;;;11.90;;
73557;SDS011;61829;53.286;10.434;2022-08-19T21:52:09;17.42;;;12.45;;
73557;SDS011;61829;53.286;10.434;2022-08-19T21:54:35;16.63;;;12.40;;
73557;SDS011;61829;53.286;10.434;2022-08-19T21:57:02;14.43;;;11.80;;
73557;SDS011;61829;53.286;10.434;2022-08-19T21:59:28;14.18;;;10.82;;
73557;SDS011;61829;53.286;10.434;2022-08-19T22:01:53;15.75;;;11.27;;
73557;SDS011;61829;53.286;10.434;2022-08-19T22:04:20;13.90;;;11.45;;
73557;SDS011;61829;53.286;10.434;2022-08-19T22:06:46;14.40;;;11.20;;
73557;SDS011;61829;53.286;10.434;2022-08-19T22:09:14;16.95;;;12.23;;
73557;SDS011;61829;53.286;10.434;2022-08-19T22:11:40;16.33;;;12.10;;
73557;SDS011;61829;53.286;10.434;2022-08-19T22:14:06;16.42;;;11.80;;
73557;SDS011;61829;53.286;10.434;2022-08-19T22:16:32;16.13;;;12.77;;
73557;SDS011;61829;53.286;10.434;2022-08-19T22:18:59;15.07;;;11.10;;
73557;SDS011;61829;53.286;10.434;2022-08-19T22:21:25;15.02;;;12.10;;
73557;SDS011;61829;53.286;10.434;2022-08-19T22:23:51;16.75;;;11.82;;
73557;SDS011;61829;53.286;10.434;2022-08-19T22:26:18;16.95;;;11.65;;
73557;SDS011;61829;53.286;10.434;2022-08-19T22:28:44;15.52;;;11.43;;
73557;SDS011;61829;53.286;10.434;2022-08-19T22:31:10;17.73;;;12.13;;
73557;SDS011;61829;53.286;10.434;2022-08-19T22:33:36;16.55;;;12.10;;
73557;SDS011;61829;53.286;10.434;2022-08-19T22:36:03;20.25;;;12.77;;
73557;SDS011;61829;53.286;10.434;2022-08-19T22:38:32;17.23;;;12.35;;
73557;SDS011;61829;53.286;10.434;2022-08-19T22:40:59;16.05;;;11.63;;
73557;SDS011;61829;53.286;10.434;2022-08-19T22:43:27;15.55;;;12.45;;
73557;SDS011;61829;53.286;10.434;2022-08-19T22:45:56;17.80;;;11.90;;
73557;SDS011;61829;53.286;10.434;2022-08-19T22:48:24;17.40;;;10.80;;
73557;SDS011;61829;53.286;10.434;2022-08-19T22:50:53;17.17;;;12.75;;
73557;SDS011;61829;53.286;10.434;2022-08-19T22:53:39;15.00;;;10.18;;
73557;SDS011;61829;53.286;10.434;2022-08-19T22:56:07;14.38;;;10.73;;
73557;SDS011;61829;53.286;10.434;2022-08-19T22:58:35;16.30;;;12.18;;
73557;SDS011;61829;53.286;10.434;2022-08-19T23:01:01;15.82;;;12.18;;
73557;SDS011;61829;53.286;10.434;2022-08-19T23:03:28;16.70;;;11.48;;
73557;SDS011;61829;53.286;10.434;2022-08-19T23:08:42;16.80;;;12.23;;
73557;SDS011;61829;53.286;10.434;2022-08-19T23:11:09;19.38;;;11.48;;
73557;SDS011;61829;53.286;10.434;2022-08-19T23:13:38;16.23;;;11.82;;
73557;SDS011;61829;53.286;10.434;2022-08-19T23:16:06;18.27;;;13.25;;
73557;SDS011;61829;53.286;10.434;2022-08-19T23:18:32;20.20;;;12.88;;
73557;SDS011;61829;53.286;10.434;2022-08-19T23:20:59;18.98;;;13.50;;
73557;SDS011;61829;53.286;10.434;2022-08-19T23:23:26;17.60;;;12.32;;
73557;SDS011;61829;53.286;10.434;2022-08-19T23:25:53;18.08;;;12.80;;
73557;SDS011;61829;53.286;10.434;2022-08-19T23:28:21;15.57;;;11.27;;
73557;SDS011;61829;53.286;10.434;2022-08-19T23:31:06;16.25;;;12.10;;
73557;SDS011;61829;53.286;10.434;2022-08-19T23:33:35;17.88;;;11.43;;
73557;SDS011;61829;53.286;10.434;2022-08-19T23:36:05;19.08;;;12.85;;
73557;SDS011;61829;53.286;10.434;2022-08-19T23:38:42;19.05;;;13.57;;
73557;SDS011;61829;53.286;10.434;2022-08-19T23:41:10;21.42;;;13.68;;
73557;SDS011;61829;53.286;10.434;2022-08-19T23:43:37;19.27;;;14.07;;
73557;SDS011;61829;53.286;10.434;2022-08-19T23:46:07;20.48;;;14.25;;
73557;SDS011;61829;53.286;10.434;2022-08-19T23:48:34;19.48;;;14.00;;
73557;SDS011;61829;53.286;10.434;2022-08-19T23:51:05;21.63;;;15.00;;
73557;SDS011;61829;53.286;10.434;2022-08-19T23:58:32;21.83;;;14.98;;
